sensor_id;sensor_type;location;lat;lon;timestamp;pressure;altitude;pressure_sealevel;temperature;humidity
82418;BME280;75985;53.734;10.260;2024-02-16T00:01:08;100729.32;;;9.49;100.00
82418;BME280;75985;53.734;10.260;2024-02-16T00:04:13;100729.78;;;9.50;100.00
82418;BME280;75985;53.734;10.260;2024-02-16T00:07:17;100728.55;;;9.51;100.00
82418;BME280;75985;53.734;10.260;2024-02-16T00:10:22;100723.31;;;9.50;100.00
82418;BME280;75985;53.734;10.260;2024-02-16T00:13:26;100730.05;;;9.46;100.00
82418;BME280;75985;53.734;10.260;2024-02-16T00:16:31;100720.28;;;9.37;100.00
82418;BME280;75985;53.734;10.260;2024-02-16T00:19:36;100719.08;;;9.29;100.00
82418;BME280;75985;53.734;10.260;2024-02-16T00:22:40;100715.38;;;9.22;100.00
82418;BME280;75985;53.734;10.260;2024-02-16T00:25:45;100709.63;;;9.18;100.00
82418;BME280;75985;53.734;10.260;2024-02-16T00:28:50;100699.88;;;9.11;100.00
82418;BME280;75985;53.734;10.260;2024-02-16T00:31:54;100694.13;;;9.07;100.00
82418;BME280;75985;53.734;10.260;2024-02-16T00:34:59;100694.00;;;9.04;100.00
82418;BME280;75985;53.734;10.260;2024-02-16T00:38:04;100684.05;;;9.02;100.00
82418;BME280;75985;53.734;10.260;2024-02-16T00:41:08;100685.14;;;8.97;100.00
82418;BME280;75985;53.734;10.260;2024-02-16T00:44:14;100678.47;;;8.91;100.00
82418;BME280;75985;53.734;10.260;2024-02-16T00:47:19;100680.63;;;8.91;100.00
82418;BME280;75985;53.734;10.260;2024-02-16T00:50:23;100679.00;;;8.93;100.00
82418;BME280;75985;53.734;10.260;2024-02-16T00:53:28;100674.42;;;8.97;100.00
82418;BME280;75985;53.734;10.260;2024-02-16T00:56:33;100672.42;;;9.02;100.00
82418;BME280;75985;53.734;10.260;2024-02-16T00:59:37;100668.73;;;9.06;100.00
82418;BME280;75985;53.734;10.260;2024-02-16T01:02:42;100661.64;;;9.12;100.00
82418;BME280;75985;53.734;10.260;2024-02-16T01:05:46;100663.79;;;9.12;100.00
82418;BME280;75985;53.734;10.260;2024-02-16T01:08:51;100662.09;;;9.13;100.00
82418;BME280;75985;53.734;10.260;2024-02-16T01:11:55;100653.06;;;9.13;100.00
82418;BME280;75985;53.734;10.260;2024-02-16T01:15:00;100653.92;;;9.13;100.00
82418;BME280;75985;53.734;10.260;2024-02-16T01:18:05;100651.34;;;9.13;100.00
82418;BME280;75985;53.734;10.260;2024-02-16T01:21:09;100653.83;;;9.10;100.00
82418;BME280;75985;53.734;10.260;2024-02-16T01:24:14;100647.46;;;9.02;100.00
82418;BME280;75985;53.734;10.260;2024-02-16T01:27:18;100641.19;;;8.95;100.00
82418;BME280;75985;53.734;10.260;2024-02-16T01:30:25;100643.65;;;8.92;100.00
82418;BME280;75985;53.734;10.260;2024-02-16T01:33:29;100629.75;;;8.89;100.00
82418;BME280;75985;53.734;10.260;2024-02-16T01:36:35;100636.08;;;8.85;100.00
82418;BME280;75985;53.734;10.260;2024-02-16T01:39:40;100641.13;;;8.82;100.00
82418;BME280;75985;53.734;10.260;2024-02-16T01:42:47;100642.52;;;8.74;100.00
82418;BME280;75985;53.734;10.260;2024-02-16T01:45:52;100647.86;;;8.67;100.00
82418;BME280;75985;53.734;10.260;2024-02-16T01:48:57;100650.19;;;8.61;100.00
82418;BME280;75985;53.734;10.260;2024-02-16T01:52:02;100648.23;;;8.55;100.00
82418;BME280;75985;53.734;10.260;2024-02-16T01:55:06;100645.62;;;8.54;100.00
82418;BME280;75985;53.734;10.260;2024-02-16T01:58:14;100634.25;;;8.50;100.00
82418;BME280;75985;53.734;10.260;2024-02-16T02:01:19;100632.43;;;8.47;100.00
82418;BME280;75985;53.734;10.260;2024-02-16T02:04:23;100625.61;;;8.49;100.00
82418;BME280;75985;53.734;10.260;2024-02-16T02:07:28;100630.74;;;8.48;100.00
82418;BME280;75985;53.734;10.260;2024-02-16T02:10:33;100628.95;;;8.47;100.00
82418;BME280;75985;53.734;10.260;2024-02-16T02:13:38;100631.97;;;8.46;100.00
82418;BME280;75985;53.734;10.260;2024-02-16T02:16:42;100629.72;;;8.44;100.00
82418;BME280;75985;53.734;10.260;2024-02-16T02:19:49;100624.50;;;8.43;100.00
82418;BME280;75985;53.734;10.260;2024-02-16T02:22:54;100610.80;;;8.44;100.00
82418;BME280;75985;53.734;10.260;2024-02-16T02:25:58;100597.67;;;8.49;100.00
82418;BME280;75985;53.734;10.260;2024-02-16T02:29:03;100592.20;;;8.53;100.00
82418;BME280;75985;53.734;10.260;2024-02-16T02:32:08;100588.49;;;8.56;100.00
82418;BME280;75985;53.734;10.260;2024-02-16T02:35:13;100589.45;;;8.58;100.00
82418;BME280;75985;53.734;10.260;2024-02-16T02:38:17;100574.03;;;8.59;100.00
82418;BME280;75985;53.734;10.260;2024-02-16T02:41:22;100572.83;;;8.63;100.00
82418;BME280;75985;53.734;10.260;2024-02-16T02:44:27;100570.75;;;8.64;100.00
82418;BME280;75985;53.734;10.260;2024-02-16T02:47:33;100565.98;;;8.63;100.00
82418;BME280;75985;53.734;10.260;2024-02-16T02:50:37;100559.23;;;8.67;100.00
82418;BME280;75985;53.734;10.260;2024-02-16T02:53:42;100560.70;;;8.71;100.00
82418;BME280;75985;53.734;10.260;2024-02-16T02:56:46;100557.23;;;8.71;100.00
82418;BME280;75985;53.734;10.260;2024-02-16T02:59:51;100556.64;;;8.67;100.00
82418;BME280;75985;53.734;10.260;2024-02-16T03:02:55;100555.72;;;8.65;100.00
82418;BME280;75985;53.734;10.260;2024-02-16T03:06:00;100553.02;;;8.61;100.00
82418;BME280;75985;53.734;10.260;2024-02-16T03:09:06;100554.25;;;8.60;100.00
82418;BME280;75985;53.734;10.260;2024-02-16T03:12:11;100549.45;;;8.58;100.00
82418;BME280;75985;53.734;10.260;2024-02-16T03:15:16;100546.29;;;8.54;100.00
82418;BME280;75985;53.734;10.260;2024-02-16T03:18:24;100541.98;;;8.54;100.00
82418;BME280;75985;53.734;10.260;2024-02-16T03:21:28;100540.97;;;8.51;100.00
82418;BME280;75985;53.734;10.260;2024-02-16T03:24:33;100526.66;;;8.47;100.00
82418;BME280;75985;53.734;10.260;2024-02-16T03:27:37;100530.28;;;8.53;100.00
82418;BME280;75985;53.734;10.260;2024-02-16T03:30:43;100524.81;;;8.55;100.00
82418;BME280;75985;53.734;10.260;2024-02-16T03:33:48;100517.53;;;8.56;100.00
82418;BME280;75985;53.734;10.260;2024-02-16T03:36:53;100511.09;;;8.56;100.00
82418;BME280;75985;53.734;10.260;2024-02-16T03:39:57;100510.63;;;8.55;100.00
82418;BME280;75985;53.734;10.260;2024-02-16T03:43:02;100499.41;;;8.54;100.00
82418;BME280;75985;53.734;10.260;2024-02-16T03:46:07;100502.95;;;8.56;100.00
82418;BME280;75985;53.734;10.260;2024-02-16T03:49:11;100493.48;;;8.57;100.00
82418;BME280;75985;53.734;10.260;2024-02-16T03:52:16;100497.42;;;8.58;100.00
82418;BME280;75985;53.734;10.260;2024-02-16T03:55:20;100497.48;;;8.60;100.00
82418;BME280;75985;53.734;10.260;2024-02-16T03:58:25;100496.12;;;8.58;100.00
82418;BME280;75985;53.734;10.260;2024-02-16T04:01:30;100495.67;;;8.57;100.00
82418;BME280;75985;53.734;10.260;2024-02-16T04:04:34;100499.88;;;8.55;100.00
82418;BME280;75985;53.734;10.260;2024-02-16T04:07:39;100506.81;;;8.56;100.00
82418;BME280;75985;53.734;10.260;2024-02-16T04:10:45;100503.41;;;8.57;100.00
82418;BME280;75985;53.734;10.260;2024-02-16T04:13:50;100507.67;;;8.57;100.00
82418;BME280;75985;53.734;10.260;2024-02-16T04:16:55;100505.92;;;8.56;100.00
82418;BME280;75985;53.734;10.260;2024-02-16T04:20:01;100505.03;;;8.55;100.00
82418;BME280;75985;53.734;10.260;2024-02-16T04:23:06;100501.53;;;8.53;100.00
82418;BME280;75985;53.734;10.260;2024-02-16T04:26:11;100500.61;;;8.53;100.00
82418;BME280;75985;53.734;10.260;2024-02-16T04:29:16;100501.23;;;8.57;100.00
82418;BME280;75985;53.734;10.260;2024-02-16T04:32:21;100504.36;;;8.59;100.00
82418;BME280;75985;53.734;10.260;2024-02-16T04:35:27;100497.48;;;8.60;100.00
82418;BME280;75985;53.734;10.260;2024-02-16T04:38:32;100493.15;;;8.59;100.00
82418;BME280;75985;53.734;10.260;2024-02-16T04:41:36;100487.16;;;8.60;100.00
82418;BME280;75985;53.734;10.260;2024-02-16T04:44:41;100485.47;;;8.60;100.00
82418;BME280;75985;53.734;10.260;2024-02-16T04:47:46;100491.03;;;8.60;100.00
82418;BME280;75985;53.734;10.260;2024-02-16T04:50:51;100485.03;;;8.61;100.00
82418;BME280;75985;53.734;10.260;2024-02-16T04:53:56;100486.70;;;8.59;100.00
82418;BME280;75985;53.734;10.260;2024-02-16T04:57:00;100481.08;;;8.58;100.00
82418;BME280;75985;53.734;10.260;2024-02-16T05:00:06;100486.23;;;8.58;100.00
82418;BME280;75985;53.734;10.260;2024-02-16T05:03:12;100493.09;;;8.57;100.00
82418;BME280;75985;53.734;10.260;2024-02-16T05:06:17;100495.27;;;8.58;100.00
82418;BME280;75985;53.734;10.260;2024-02-16T05:09:21;100488.82;;;8.58;100.00
82418;BME280;75985;53.734;10.260;2024-02-16T05:12:28;100482.25;;;8.55;100.00
82418;BME280;75985;53.734;10.260;2024-02-16T05:15:33;100482.64;;;8.54;100.00
82418;BME280;75985;53.734;10.260;2024-02-16T05:18:37;100477.09;;;8.55;100.00
82418;BME280;75985;53.734;10.260;2024-02-16T05:21:43;100481.20;;;8.51;100.00
82418;BME280;75985;53.734;10.260;2024-02-16T05:24:48;100473.00;;;8.50;100.00
82418;BME280;75985;53.734;10.260;2024-02-16T05:27:52;100471.59;;;8.47;100.00
82418;BME280;75985;53.734;10.260;2024-02-16T05:30:58;100469.44;;;8.46;100.00
82418;BME280;75985;53.734;10.260;2024-02-16T05:34:04;100469.44;;;8.46;100.00
82418;BME280;75985;53.734;10.260;2024-02-16T05:37:08;100472.02;;;8.46;100.00
82418;BME280;75985;53.734;10.260;2024-02-16T05:40:13;100464.73;;;8.47;100.00
82418;BME280;75985;53.734;10.260;2024-02-16T05:43:31;100459.98;;;8.47;100.00
82418;BME280;75985;53.734;10.260;2024-02-16T05:46:36;100465.08;;;8.45;100.00
82418;BME280;75985;53.734;10.260;2024-02-16T05:49:41;100456.81;;;8.43;100.00
82418;BME280;75985;53.734;10.260;2024-02-16T05:52:46;100459.27;;;8.40;100.00
82418;BME280;75985;53.734;10.260;2024-02-16T05:55:50;100459.25;;;8.38;100.00
82418;BME280;75985;53.734;10.260;2024-02-16T05:58:55;100461.83;;;8.38;100.00
82418;BME280;75985;53.734;10.260;2024-02-16T06:01:59;100465.70;;;8.38;100.00
82418;BME280;75985;53.734;10.260;2024-02-16T06:05:04;100460.47;;;8.36;100.00
82418;BME280;75985;53.734;10.260;2024-02-16T06:08:10;100461.64;;;8.33;100.00
82418;BME280;75985;53.734;10.260;2024-02-16T06:11:15;100471.77;;;8.29;100.00
82418;BME280;75985;53.734;10.260;2024-02-16T06:14:20;100470.73;;;8.23;100.00
82418;BME280;75985;53.734;10.260;2024-02-16T06:17:26;100466.42;;;8.13;100.00
82418;BME280;75985;53.734;10.260;2024-02-16T06:20:30;100476.70;;;8.11;100.00
82418;BME280;75985;53.734;10.260;2024-02-16T06:23:35;100475.28;;;8.08;100.00
82418;BME280;75985;53.734;10.260;2024-02-16T06:26:39;100470.13;;;8.08;100.00
82418;BME280;75985;53.734;10.260;2024-02-16T06:29:44;100467.03;;;8.05;100.00
82418;BME280;75985;53.734;10.260;2024-02-16T06:32:49;100468.25;;;8.04;100.00
82418;BME280;75985;53.734;10.260;2024-02-16T06:35:53;100470.77;;;8.02;100.00
82418;BME280;75985;53.734;10.260;2024-02-16T06:38:58;100471.09;;;8.00;100.00
82418;BME280;75985;53.734;10.260;2024-02-16T06:42:03;100464.95;;;7.96;100.00
82418;BME280;75985;53.734;10.260;2024-02-16T06:45:08;100468.30;;;7.94;100.00
82418;BME280;75985;53.734;10.260;2024-02-16T06:48:12;100467.14;;;7.87;100.00
82418;BME280;75985;53.734;10.260;2024-02-16T06:51:17;100472.14;;;7.82;100.00
82418;BME280;75985;53.734;10.260;2024-02-16T06:54:22;100474.91;;;7.77;100.00
82418;BME280;75985;53.734;10.260;2024-02-16T06:57:27;100470.82;;;7.71;100.00
82418;BME280;75985;53.734;10.260;2024-02-16T07:00:32;100471.45;;;7.65;100.00
82418;BME280;75985;53.734;10.260;2024-02-16T07:03:38;100476.00;;;7.61;100.00
82418;BME280;75985;53.734;10.260;2024-02-16T07:06:43;100471.61;;;7.58;100.00
82418;BME280;75985;53.734;10.260;2024-02-16T07:09:47;100471.05;;;7.56;100.00
82418;BME280;75985;53.734;10.260;2024-02-16T07:12:52;100473.55;;;7.54;100.00
82418;BME280;75985;53.734;10.260;2024-02-16T07:15:56;100472.27;;;7.54;100.00
82418;BME280;75985;53.734;10.260;2024-02-16T07:19:01;100473.98;;;7.54;100.00
82418;BME280;75985;53.734;10.260;2024-02-16T07:22:05;100477.39;;;7.53;100.00
82418;BME280;75985;53.734;10.260;2024-02-16T07:25:13;100481.58;;;7.51;100.00
82418;BME280;75985;53.734;10.260;2024-02-16T07:28:18;100483.77;;;7.51;100.00
82418;BME280;75985;53.734;10.260;2024-02-16T07:31:22;100488.29;;;7.57;100.00
82418;BME280;75985;53.734;10.260;2024-02-16T07:34:27;100490.70;;;7.64;100.00
82418;BME280;75985;53.734;10.260;2024-02-16T07:37:32;100494.54;;;7.74;100.00
82418;BME280;75985;53.734;10.260;2024-02-16T07:40:36;100488.53;;;7.84;100.00
82418;BME280;75985;53.734;10.260;2024-02-16T07:43:41;100497.51;;;7.94;100.00
82418;BME280;75985;53.734;10.260;2024-02-16T07:46:46;100491.09;;;8.06;100.00
82418;BME280;75985;53.734;10.260;2024-02-16T07:49:50;100491.94;;;8.16;100.00
82418;BME280;75985;53.734;10.260;2024-02-16T07:52:55;100483.63;;;8.23;100.00
82418;BME280;75985;53.734;10.260;2024-02-16T07:55:59;100478.68;;;8.30;100.00
82418;BME280;75985;53.734;10.260;2024-02-16T07:59:04;100482.55;;;8.41;100.00
82418;BME280;75985;53.734;10.260;2024-02-16T08:02:09;100478.68;;;8.53;100.00
82418;BME280;75985;53.734;10.260;2024-02-16T08:05:15;100482.95;;;8.62;100.00
82418;BME280;75985;53.734;10.260;2024-02-16T08:08:22;100486.87;;;8.75;100.00
82418;BME280;75985;53.734;10.260;2024-02-16T08:11:27;100479.97;;;8.87;100.00
82418;BME280;75985;53.734;10.260;2024-02-16T08:14:31;100492.16;;;8.91;100.00
82418;BME280;75985;53.734;10.260;2024-02-16T08:17:37;100498.27;;;8.93;100.00
82418;BME280;75985;53.734;10.260;2024-02-16T08:20:41;100485.51;;;8.98;100.00
82418;BME280;75985;53.734;10.260;2024-02-16T08:23:48;100476.30;;;9.05;100.00
82418;BME280;75985;53.734;10.260;2024-02-16T08:26:53;100474.06;;;9.03;100.00
82418;BME280;75985;53.734;10.260;2024-02-16T08:30:00;100470.19;;;9.03;100.00
82418;BME280;75985;53.734;10.260;2024-02-16T08:33:05;100466.11;;;9.09;100.00
82418;BME280;75985;53.734;10.260;2024-02-16T08:36:10;100453.67;;;9.23;100.00
82418;BME280;75985;53.734;10.260;2024-02-16T08:39:15;100450.09;;;9.44;100.00
82418;BME280;75985;53.734;10.260;2024-02-16T08:42:20;100444.31;;;9.66;100.00
82418;BME280;75985;53.734;10.260;2024-02-16T08:45:26;100446.02;;;9.79;100.00
82418;BME280;75985;53.734;10.260;2024-02-16T08:48:30;100434.01;;;9.81;100.00
82418;BME280;75985;53.734;10.260;2024-02-16T08:51:35;100435.96;;;9.88;100.00
82418;BME280;75985;53.734;10.260;2024-02-16T08:54:39;100442.81;;;9.86;100.00
82418;BME280;75985;53.734;10.260;2024-02-16T08:57:44;100435.51;;;9.87;100.00
82418;BME280;75985;53.734;10.260;2024-02-16T09:00:49;100438.95;;;9.87;100.00
82418;BME280;75985;53.734;10.260;2024-02-16T09:03:53;100445.41;;;9.87;100.00
82418;BME280;75985;53.734;10.260;2024-02-16T09:06:59;100450.36;;;9.80;100.00
82418;BME280;75985;53.734;10.260;2024-02-16T09:10:06;100461.00;;;9.76;100.00
82418;BME280;75985;53.734;10.260;2024-02-16T09:13:11;100449.41;;;9.77;100.00
82418;BME280;75985;53.734;10.260;2024-02-16T09:16:16;100457.09;;;9.74;100.00
82418;BME280;75985;53.734;10.260;2024-02-16T09:19:20;100458.84;;;9.75;100.00
82418;BME280;75985;53.734;10.260;2024-02-16T09:22:25;100453.67;;;9.75;100.00
82418;BME280;75985;53.734;10.260;2024-02-16T09:25:29;100454.44;;;9.86;100.00
82418;BME280;75985;53.734;10.260;2024-02-16T09:28:40;100443.54;;;9.96;100.00
82418;BME280;75985;53.734;10.260;2024-02-16T09:31:49;100439.03;;;10.03;100.00
82418;BME280;75985;53.734;10.260;2024-02-16T09:34:57;100439.03;;;10.03;100.00
82418;BME280;75985;53.734;10.260;2024-02-16T09:38:02;100446.63;;;9.99;100.00
82418;BME280;75985;53.734;10.260;2024-02-16T09:41:06;100448.00;;;9.87;100.00
82418;BME280;75985;53.734;10.260;2024-02-16T09:44:11;100448.10;;;9.90;100.00
82418;BME280;75985;53.734;10.260;2024-02-16T09:47:16;100438.14;;;9.88;100.00
82418;BME280;75985;53.734;10.260;2024-02-16T09:50:22;100440.73;;;9.88;100.00
82418;BME280;75985;53.734;10.260;2024-02-16T09:53:28;100444.94;;;9.99;100.00
82418;BME280;75985;53.734;10.260;2024-02-16T09:56:33;100434.72;;;10.19;100.00
82418;BME280;75985;53.734;10.260;2024-02-16T09:59:38;100439.50;;;10.34;100.00
82418;BME280;75985;53.734;10.260;2024-02-16T10:02:46;100454.18;;;10.35;100.00
82418;BME280;75985;53.734;10.260;2024-02-16T10:05:52;100458.61;;;10.39;100.00
82418;BME280;75985;53.734;10.260;2024-02-16T10:08:59;100459.59;;;10.43;100.00
82418;BME280;75985;53.734;10.260;2024-02-16T10:12:06;100462.95;;;10.40;100.00
82418;BME280;75985;53.734;10.260;2024-02-16T10:15:11;100469.11;;;10.44;100.00
82418;BME280;75985;53.734;10.260;2024-02-16T10:18:15;100464.82;;;10.59;100.00
82418;BME280;75985;53.734;10.260;2024-02-16T10:21:27;100467.89;;;10.76;100.00
82418;BME280;75985;53.734;10.260;2024-02-16T10:24:31;100458.95;;;10.95;100.00
82418;BME280;75985;53.734;10.260;2024-02-16T10:27:36;100464.15;;;11.13;100.00
82418;BME280;75985;53.734;10.260;2024-02-16T10:30:41;100461.69;;;11.34;100.00
82418;BME280;75985;53.734;10.260;2024-02-16T10:33:48;100457.75;;;11.50;100.00
82418;BME280;75985;53.734;10.260;2024-02-16T10:36:52;100466.20;;;11.78;100.00
82418;BME280;75985;53.734;10.260;2024-02-16T10:39:59;100465.46;;;12.01;100.00
82418;BME280;75985;53.734;10.260;2024-02-16T10:43:07;100470.55;;;12.14;100.00
82418;BME280;75985;53.734;10.260;2024-02-16T10:46:13;100467.30;;;12.23;100.00
82418;BME280;75985;53.734;10.260;2024-02-16T10:49:18;100467.93;;;12.33;100.00
82418;BME280;75985;53.734;10.260;2024-02-16T10:52:23;100489.40;;;12.45;100.00
82418;BME280;75985;53.734;10.260;2024-02-16T10:55:30;100477.42;;;12.52;100.00
82418;BME280;75985;53.734;10.260;2024-02-16T10:58:35;100488.80;;;12.59;100.00
82418;BME280;75985;53.734;10.260;2024-02-16T11:01:43;100483.16;;;12.58;100.00
82418;BME280;75985;53.734;10.260;2024-02-16T11:04:48;100480.50;;;12.55;100.00
82418;BME280;75985;53.734;10.260;2024-02-16T11:08:04;100481.31;;;12.52;100.00
82418;BME280;75985;53.734;10.260;2024-02-16T11:11:09;100478.53;;;12.43;100.00
82418;BME280;75985;53.734;10.260;2024-02-16T11:14:16;100479.16;;;12.32;100.00
82418;BME280;75985;53.734;10.260;2024-02-16T11:17:22;100477.67;;;12.23;100.00
82418;BME280;75985;53.734;10.260;2024-02-16T11:20:28;100466.44;;;12.24;100.00
82418;BME280;75985;53.734;10.260;2024-02-16T11:23:35;100460.14;;;12.33;100.00
82418;BME280;75985;53.734;10.260;2024-02-16T11:26:43;100461.13;;;12.59;100.00
82418;BME280;75985;53.734;10.260;2024-02-16T11:29:49;100457.41;;;12.90;100.00
82418;BME280;75985;53.734;10.260;2024-02-16T11:32:54;100453.57;;;13.17;99.67
82418;BME280;75985;53.734;10.260;2024-02-16T11:36:01;100451.27;;;13.35;96.75
82418;BME280;75985;53.734;10.260;2024-02-16T11:39:14;100450.83;;;13.58;94.32
82418;BME280;75985;53.734;10.260;2024-02-16T11:42:21;100450.78;;;13.84;91.96
82418;BME280;75985;53.734;10.260;2024-02-16T11:45:26;100446.73;;;14.01;88.81
82418;BME280;75985;53.734;10.260;2024-02-16T11:48:30;100451.14;;;14.07;85.51
82418;BME280;75985;53.734;10.260;2024-02-16T11:51:35;100441.66;;;14.12;83.38
82418;BME280;75985;53.734;10.260;2024-02-16T11:54:43;100447.83;;;14.19;81.63
82418;BME280;75985;53.734;10.260;2024-02-16T11:57:47;100450.77;;;14.12;79.43
82418;BME280;75985;53.734;10.260;2024-02-16T12:00:54;100453.84;;;14.13;78.69
82418;BME280;75985;53.734;10.260;2024-02-16T12:04:00;100452.50;;;14.10;77.36
82418;BME280;75985;53.734;10.260;2024-02-16T12:07:04;100457.33;;;14.16;76.58
82418;BME280;75985;53.734;10.260;2024-02-16T12:10:10;100454.42;;;14.25;76.65
82418;BME280;75985;53.734;10.260;2024-02-16T12:13:22;100452.75;;;14.31;75.75
82418;BME280;75985;53.734;10.260;2024-02-16T12:16:22;100449.22;;;14.25;74.09
82418;BME280;75985;53.734;10.260;2024-02-16T12:19:28;100464.47;;;14.29;73.39
82418;BME280;75985;53.734;10.260;2024-02-16T12:22:33;100457.59;;;14.34;73.17
82418;BME280;75985;53.734;10.260;2024-02-16T12:25:38;100452.45;;;14.40;73.52
82418;BME280;75985;53.734;10.260;2024-02-16T12:28:44;100450.37;;;14.48;73.01
82418;BME280;75985;53.734;10.260;2024-02-16T12:31:50;100453.45;;;14.49;72.66
82418;BME280;75985;53.734;10.260;2024-02-16T12:34:56;100445.50;;;14.39;71.86
82418;BME280;75985;53.734;10.260;2024-02-16T12:38:01;100434.53;;;14.29;72.04
82418;BME280;75985;53.734;10.260;2024-02-16T12:41:05;100437.55;;;14.29;72.90
82418;BME280;75985;53.734;10.260;2024-02-16T12:44:11;100434.95;;;14.29;72.55
82418;BME280;75985;53.734;10.260;2024-02-16T12:47:15;100447.08;;;14.28;72.74
82418;BME280;75985;53.734;10.260;2024-02-16T12:50:20;100449.34;;;14.33;72.97
82418;BME280;75985;53.734;10.260;2024-02-16T12:53:24;100455.83;;;14.32;72.53
82418;BME280;75985;53.734;10.260;2024-02-16T12:56:29;100463.56;;;14.27;72.27
82418;BME280;75985;53.734;10.260;2024-02-16T12:59:33;100457.92;;;14.26;72.58
82418;BME280;75985;53.734;10.260;2024-02-16T13:02:38;100462.66;;;14.25;72.00
82418;BME280;75985;53.734;10.260;2024-02-16T13:05:42;100464.81;;;14.24;72.28
82418;BME280;75985;53.734;10.260;2024-02-16T13:08:47;100464.42;;;14.26;72.09
82418;BME280;75985;53.734;10.260;2024-02-16T13:11:51;100470.98;;;14.29;72.13
82418;BME280;75985;53.734;10.260;2024-02-16T13:14:58;100461.56;;;14.40;72.26
82418;BME280;75985;53.734;10.260;2024-02-16T13:18:03;100472.48;;;14.46;71.83
82418;BME280;75985;53.734;10.260;2024-02-16T13:21:07;100463.37;;;14.46;71.78
82418;BME280;75985;53.734;10.260;2024-02-16T13:24:12;100480.26;;;14.42;71.68
82418;BME280;75985;53.734;10.260;2024-02-16T13:27:16;100477.51;;;14.32;72.67
82418;BME280;75985;53.734;10.260;2024-02-16T13:30:21;100475.41;;;14.05;73.96
82418;BME280;75985;53.734;10.260;2024-02-16T13:33:25;100480.78;;;13.88;74.92
82418;BME280;75985;53.734;10.260;2024-02-16T13:36:30;100493.19;;;13.78;75.40
82418;BME280;75985;53.734;10.260;2024-02-16T13:39:34;100483.12;;;13.71;75.41
82418;BME280;75985;53.734;10.260;2024-02-16T13:42:39;100474.95;;;13.75;75.71
82418;BME280;75985;53.734;10.260;2024-02-16T13:45:52;100472.38;;;13.78;75.30
82418;BME280;75985;53.734;10.260;2024-02-16T13:48:56;100478.13;;;13.85;75.75
82418;BME280;75985;53.734;10.260;2024-02-16T13:52:02;100477.80;;;13.91;75.51
82418;BME280;75985;53.734;10.260;2024-02-16T13:55:07;100474.78;;;13.93;74.93
82418;BME280;75985;53.734;10.260;2024-02-16T13:58:12;100481.23;;;13.90;74.99
82418;BME280;75985;53.734;10.260;2024-02-16T14:01:17;100484.22;;;13.86;75.33
82418;BME280;75985;53.734;10.260;2024-02-16T14:04:21;100487.20;;;13.84;75.82
82418;BME280;75985;53.734;10.260;2024-02-16T14:07:28;100485.33;;;13.73;76.05
82418;BME280;75985;53.734;10.260;2024-02-16T14:10:34;100488.65;;;13.65;76.84
82418;BME280;75985;53.734;10.260;2024-02-16T14:13:38;100483.89;;;13.66;77.38
82418;BME280;75985;53.734;10.260;2024-02-16T14:16:43;100497.86;;;13.72;76.94
82418;BME280;75985;53.734;10.260;2024-02-16T14:19:48;100496.48;;;13.66;76.86
82418;BME280;75985;53.734;10.260;2024-02-16T14:22:52;100501.20;;;13.64;76.96
82418;BME280;75985;53.734;10.260;2024-02-16T14:25:57;100503.19;;;13.53;77.04
82418;BME280;75985;53.734;10.260;2024-02-16T14:29:02;100497.96;;;13.52;77.56
82418;BME280;75985;53.734;10.260;2024-02-16T14:32:06;100497.48;;;13.49;77.62
82418;BME280;75985;53.734;10.260;2024-02-16T14:35:11;100497.08;;;13.51;77.82
82418;BME280;75985;53.734;10.260;2024-02-16T14:38:16;100504.46;;;13.52;77.86
82418;BME280;75985;53.734;10.260;2024-02-16T14:41:20;100516.98;;;13.49;77.99
82418;BME280;75985;53.734;10.260;2024-02-16T14:44:26;100511.22;;;13.43;78.14
82418;BME280;75985;53.734;10.260;2024-02-16T14:47:30;100517.66;;;13.40;78.36
82418;BME280;75985;53.734;10.260;2024-02-16T14:50:35;100522.73;;;13.32;78.59
82418;BME280;75985;53.734;10.260;2024-02-16T14:53:40;100524.77;;;13.25;79.51
82418;BME280;75985;53.734;10.260;2024-02-16T14:56:45;100534.14;;;13.17;80.05
82418;BME280;75985;53.734;10.260;2024-02-16T14:59:49;100534.92;;;13.13;80.29
82418;BME280;75985;53.734;10.260;2024-02-16T15:02:55;100536.09;;;13.06;80.19
82418;BME280;75985;53.734;10.260;2024-02-16T15:06:00;100544.67;;;13.02;81.18
82418;BME280;75985;53.734;10.260;2024-02-16T15:09:04;100544.84;;;12.89;82.39
82418;BME280;75985;53.734;10.260;2024-02-16T15:12:09;100551.01;;;12.73;83.75
82418;BME280;75985;53.734;10.260;2024-02-16T15:15:13;100558.09;;;12.60;84.84
82418;BME280;75985;53.734;10.260;2024-02-16T15:18:18;100554.82;;;12.50;85.44
82418;BME280;75985;53.734;10.260;2024-02-16T15:21:23;100553.30;;;12.40;86.03
82418;BME280;75985;53.734;10.260;2024-02-16T15:24:27;100560.19;;;12.38;86.54
82418;BME280;75985;53.734;10.260;2024-02-16T15:27:32;100569.52;;;12.30;87.00
82418;BME280;75985;53.734;10.260;2024-02-16T15:30:39;100558.94;;;12.22;88.23
82418;BME280;75985;53.734;10.260;2024-02-16T15:33:43;100567.36;;;12.12;89.16
82418;BME280;75985;53.734;10.260;2024-02-16T15:36:48;100563.23;;;12.04;89.74
82418;BME280;75985;53.734;10.260;2024-02-16T15:39:54;100567.85;;;11.98;90.25
82418;BME280;75985;53.734;10.260;2024-02-16T15:43:01;100569.55;;;11.96;90.44
82418;BME280;75985;53.734;10.260;2024-02-16T15:46:05;100591.55;;;11.94;90.64
82418;BME280;75985;53.734;10.260;2024-02-16T15:49:10;100599.70;;;11.92;90.77
82418;BME280;75985;53.734;10.260;2024-02-16T15:52:15;100597.91;;;11.90;91.00